Aérodrome :
LOGIN :

S'inscrire | Disclaimer

   EN    FR    IT 

 










Légende :    VFR   VFR Marginal   IFR   IFR Intensif   IFR Très Intensif
Visi : 
Plafond : 
>= 8 km
>= 3000ft
5 à 8 km
1000 à 3000 ft
1500m à 5 km
500 à 1000 ft
800 à 1500m
200 à 500 ft
< 800m
< 200 ft
Symboles :   Orages  Brouillard  Fortes neiges  Fortes précipitations  Vent > 20 kt
SIGMETs :   Divers  Orages  Givrage  Turbulence  Onde Orograph.  Cendres Volcan.







- Altitude de l'aérodrome : 121 ft
- Code IATA : HUY
- Voir les cartes d'approche


EGNJ - Humberside

DERNIER METAR :
  • 172020Z 27005KT 9000 -RA FEW030 17/15 Q1010

METARs EXPIRÉS :
  • 171950Z 28011KT 9999 FEW030 18/14 Q1010
  • 171920Z 21004KT 9999 FEW030 21/15 Q1009
  • 171850Z 22005KT CAVOK 21/13 Q1010
  • 171820Z 23004KT CAVOK 22/13 Q1010
  • 171750Z 22006KT CAVOK 22/13 Q1010

TAF TAF EGNJ
Valide du 17 à 21h jusqu'au 18 à 06h UTC


171957Z 1721/1806 20008KT 9999 FEW030
TEMPO 1721/1806 BKN014
PROB40
TEMPO 1721/1806 6000 RA BKN008
ATIS : +44 1652 682 020
Pas de NOTAMs connus pour ce terrain.



MET'MAP, la Météo Aéronautique d'un coup d'oeil ! - Copyright ORBIFLY Décembre 2007 - Disclaimer

ORBIFLY MET'MAP TEAM :

Programmation & Développement : Alexandra Zaïnal
Conception & Développement : Baudouin d'Aumeries
Co-Programmation & Développement : Marc-Olivier Méhu
Soutien technique & logistique : Manuel Goepfert

Contact : metmap@orbifly.com




SOURCES & CREDITS :

   NOAA